Mountain Fork River (Oklahoma), Eagleville (07339000)

StateOklahomaLatestPoor (199 cfs)
RiverMountain Fork RiverRatingObservedEstimated
Updated2022-09-25 21:30 (1 hour ago)Flood - The river is flooding. Obstacles can be treacherous or deadly. The river should be avoided at this stage for casual trips and definitely for the inexperienced. Trips should be attempted only with protective gear and equipment.Flood(none)6262
Discharge199 cfs (median: 346 cfs)High - The river is high and potentially dangerous, especially for the young and / or inexperienced. Normal stream obstacles are sometimes difficult to navigate. Extended distances can be attempted, but canoe travel may not be advisable.High(none)1021
Height1.02 feetGood - Conditions are ideal for a canoe or kayak. Boats typically will drag on fewer than one-quarter of riffles, if at all, and portages are unnecessary or rare. Normal float lengths can be attempted without a problem.Good(none)750
TrendFalling (falling over 24 hours)Low - River is low but can still be floated. Some riffles are okay but most come with significant dragging and might need a portage. Float lengths should be reduced to accommodate low flow, dragging, and portages.Low(none)681
USGSExternal icon USGS Site (External icon Duck Duck Go Maps)Poor - River is too low to float comfortably. Most or all riffles will drag or must be portaged and some obstacles (such as slick shelf rock) cause undue problems. Avoid the river at this stage for casual paddling trips.Poor(none)198

Trending Data

Plot Image

Trips for Mountain Fork River (Oklahoma), Eagleville (07339000)

DateStartEndDistanceConditionDischargeHeightFishingDetails
Click for details2003-07-06 Rereg Dam US 70 Total trip distance: 3.2 miles3.2 Good 363 None NoneNone Fillmore, Brian
Wann, Denny
Fillmore, Brian; Wann, Denny
No notes for this trip<i>No notes for this trip</i> USGS Gauge Data:
Eagleville (07339000)
Discharge: 363
Height:
<b>USGS Gauge Data:</b></br />Eagleville (07339000)<br />Discharge: 363<br />Height:
Source: FillmoreSource: Fillmore

A total of 1 rows are displayed.

Trip Summary for Mountain Fork River (Oklahoma), Eagleville (07339000)

Miles3.2
Trips1
People2
Dates1
Years1
Months1
Rows1
Sources1

Condition Descriptions

Fishing Conditions

Fish Species

Notes

Classic Trip List

The classic River Trips application is still available for use. It is updated with the new system using a data retrofit. It is no longer maintained. The original River Trips application is no longer updated (as of 1 Dec 2016) but can be checked for errors or for the condition of the data before it was converted to the new system.

Gauge Data Table

ObservationHeightDischargeMaximum
Discharge
Minimum
Discharge
Mean
Discharge
P05P10P20P25P50
(Median)
P75P80P90P95
2022-09-25 21:30 1.02 199 5320 (1992) 97 (2021) 655 128 147 186 200 346 622 777 1300 3750
2022-09-25 20:30 1.04 206 5320 (1992) 97 (2021) 655 128 147 186 200 346 622 777 1300 3750
2022-09-25 19:30 1.07 217 5320 (1992) 97 (2021) 655 128 147 186 200 346 622 777 1300 3750
2022-09-25 18:30 1.09 224 5320 (1992) 97 (2021) 655 128 147 186 200 346 622 777 1300 3750
2022-09-25 17:30 1.11 231 5320 (1992) 97 (2021) 655 128 147 186 200 346 622 777 1300 3750
2022-09-25 16:30 1.11 231 5320 (1992) 97 (2021) 655 128 147 186 200 346 622 777 1300 3750
2022-09-25 15:30 1.18 257 5320 (1992) 97 (2021) 655 128 147 186 200 346 622 777 1300 3750
2022-09-25 14:30 1.22 273 5320 (1992) 97 (2021) 655 128 147 186 200 346 622 777 1300 3750
2022-09-25 13:30 1.26 288 5320 (1992) 97 (2021) 655 128 147 186 200 346 622 777 1300 3750
2022-09-25 12:30 1.31 309 5320 (1992) 97 (2021) 655 128 147 186 200 346 622 777 1300 3750
2022-09-25 11:30 1.36 329 5320 (1992) 97 (2021) 655 128 147 186 200 346 622 777 1300 3750
2022-09-25 10:30 1.41 351 5320 (1992) 97 (2021) 655 128 147 186 200 346 622 777 1300 3750
2022-09-25 09:30 1.47 377 5320 (1992) 97 (2021) 655 128 147 186 200 346 622 777 1300 3750
2022-09-25 08:30 1.53 404 5320 (1992) 97 (2021) 655 128 147 186 200 346 622 777 1300 3750
2022-09-25 07:30 1.60 437 5320 (1992) 97 (2021) 655 128 147 186 200 346 622 777 1300 3750
2022-09-25 06:30 1.66 466 5320 (1992) 97 (2021) 655 128 147 186 200 346 622 777 1300 3750
2022-09-25 05:30 1.75 514 5320 (1992) 97 (2021) 655 128 147 186 200 346 622 777 1300 3750
2022-09-25 04:30 1.84 564 5320 (1992) 97 (2021) 655 128 147 186 200 346 622 777 1300 3750
2022-09-25 03:30 1.93 616 5320 (1992) 97 (2021) 655 128 147 186 200 346 622 777 1300 3750
2022-09-25 02:30 2.03 676 5320 (1992) 97 (2021) 655 128 147 186 200 346 622 777 1300 3750
2022-09-25 01:30 2.14 745 5320 (1992) 97 (2021) 655 128 147 186 200 346 622 777 1300 3750
2022-09-25 00:30 2.24 809 5320 (1992) 97 (2021) 655 128 147 186 200 346 622 777 1300 3750
2022-09-24 23:30 2.32 862 3500 (1992) 99 (2021) 592 122 153 174 197 352 786 856 1180 2590
2022-09-24 22:30 2.36 890 3500 (1992) 99 (2021) 592 122 153 174 197 352 786 856 1180 2590
2022-09-24 21:30 2.22 796 3500 (1992) 99 (2021) 592 122 153 174 197 352 786 856 1180 2590
2022-09-24 20:30 1.79 536 3500 (1992) 99 (2021) 592 122 153 174 197 352 786 856 1180 2590
2022-09-24 19:30 1.10 228 3500 (1992) 99 (2021) 592 122 153 174 197 352 786 856 1180 2590
2022-09-24 18:30 0.76 118 3500 (1992) 99 (2021) 592 122 153 174 197 352 786 856 1180 2590
2022-09-24 17:30 0.70 102 3500 (1992) 99 (2021) 592 122 153 174 197 352 786 856 1180 2590
2022-09-24 16:30 0.73 110 3500 (1992) 99 (2021) 592 122 153 174 197 352 786 856 1180 2590
2022-09-24 15:30 0.74 113 3500 (1992) 99 (2021) 592 122 153 174 197 352 786 856 1180 2590
2022-09-24 14:30 0.72 108 3500 (1992) 99 (2021) 592 122 153 174 197 352 786 856 1180 2590
2022-09-24 13:30 0.71 105 3500 (1992) 99 (2021) 592 122 153 174 197 352 786 856 1180 2590
2022-09-24 12:30 0.74 113 3500 (1992) 99 (2021) 592 122 153 174 197 352 786 856 1180 2590
2022-09-24 11:30 0.76 118 3500 (1992) 99 (2021) 592 122 153 174 197 352 786 856 1180 2590
2022-09-24 10:30 0.76 118 3500 (1992) 99 (2021) 592 122 153 174 197 352 786 856 1180 2590
2022-09-24 09:30 0.76 118 3500 (1992) 99 (2021) 592 122 153 174 197 352 786 856 1180 2590
2022-09-24 08:30 0.76 118 3500 (1992) 99 (2021) 592 122 153 174 197 352 786 856 1180 2590
2022-09-24 07:30 0.77 121 3500 (1992) 99 (2021) 592 122 153 174 197 352 786 856 1180 2590
2022-09-24 06:30 0.77 121 3500 (1992) 99 (2021) 592 122 153 174 197 352 786 856 1180 2590
2022-09-24 05:30 0.77 121 3500 (1992) 99 (2021) 592 122 153 174 197 352 786 856 1180 2590
2022-09-24 04:30 0.77 121 3500 (1992) 99 (2021) 592 122 153 174 197 352 786 856 1180 2590
2022-09-24 03:30 0.77 121 3500 (1992) 99 (2021) 592 122 153 174 197 352 786 856 1180 2590
2022-09-24 02:30 0.78 124 3500 (1992) 99 (2021) 592 122 153 174 197 352 786 856 1180 2590
2022-09-24 01:30 0.78 124 3500 (1992) 99 (2021) 592 122 153 174 197 352 786 856 1180 2590
2022-09-24 00:30 0.78 124 3500 (1992) 99 (2021) 592 122 153 174 197 352 786 856 1180 2590
2022-09-23 23:30 0.78 124 3200 (1974) 104 (2021) 648 143 159 196 212 380 736 837 1450 3050
2022-09-23 22:30 0.79 127 3200 (1974) 104 (2021) 648 143 159 196 212 380 736 837 1450 3050
2022-09-23 21:30 0.79 127 3200 (1974) 104 (2021) 648 143 159 196 212 380 736 837 1450 3050
2022-09-23 20:30 0.79 127 3200 (1974) 104 (2021) 648 143 159 196 212 380 736 837 1450 3050
2022-09-23 19:30 0.80 130 3200 (1974) 104 (2021) 648 143 159 196 212 380 736 837 1450 3050
2022-09-23 18:30 0.79 127 3200 (1974) 104 (2021) 648 143 159 196 212 380 736 837 1450 3050
2022-09-23 17:30 0.81 133 3200 (1974) 104 (2021) 648 143 159 196 212 380 736 837 1450 3050
2022-09-23 16:30 0.82 136 3200 (1974) 104 (2021) 648 143 159 196 212 380 736 837 1450 3050
2022-09-23 15:30 0.83 139 3200 (1974) 104 (2021) 648 143 159 196 212 380 736 837 1450 3050
2022-09-23 14:30 0.84 142 3200 (1974) 104 (2021) 648 143 159 196 212 380 736 837 1450 3050
2022-09-23 13:30 0.83 139 3200 (1974) 104 (2021) 648 143 159 196 212 380 736 837 1450 3050
2022-09-23 12:30 0.86 148 3200 (1974) 104 (2021) 648 143 159 196 212 380 736 837 1450 3050
2022-09-23 11:30 0.87 151 3200 (1974) 104 (2021) 648 143 159 196 212 380 736 837 1450 3050
2022-09-23 10:30 0.88 154 3200 (1974) 104 (2021) 648 143 159 196 212 380 736 837 1450 3050
2022-09-23 09:30 0.89 157 3200 (1974) 104 (2021) 648 143 159 196 212 380 736 837 1450 3050
2022-09-23 08:30 0.91 163 3200 (1974) 104 (2021) 648 143 159 196 212 380 736 837 1450 3050
2022-09-23 07:30 0.91 163 3200 (1974) 104 (2021) 648 143 159 196 212 380 736 837 1450 3050
2022-09-23 06:30 0.93 169 3200 (1974) 104 (2021) 648 143 159 196 212 380 736 837 1450 3050
2022-09-23 05:30 0.94 173 3200 (1974) 104 (2021) 648 143 159 196 212 380 736 837 1450 3050
2022-09-23 04:30 0.96 179 3200 (1974) 104 (2021) 648 143 159 196 212 380 736 837 1450 3050
2022-09-23 03:30 0.97 182 3200 (1974) 104 (2021) 648 143 159 196 212 380 736 837 1450 3050
2022-09-23 02:30 0.99 189 3200 (1974) 104 (2021) 648 143 159 196 212 380 736 837 1450 3050
2022-09-23 01:30 1.01 196 3200 (1974) 104 (2021) 648 143 159 196 212 380 736 837 1450 3050
2022-09-23 00:30 1.03 203 3200 (1974) 104 (2021) 648 143 159 196 212 380 736 837 1450 3050
2022-09-22 23:30 1.01 196 2670 (2009) 122 (2021) 595 139 163 195 237 427 814 997 1190 1870
2022-09-22 22:30 1.06 213 2670 (2009) 122 (2021) 595 139 163 195 237 427 814 997 1190 1870
2022-09-22 21:30 1.09 224 2670 (2009) 122 (2021) 595 139 163 195 237 427 814 997 1190 1870
2022-09-22 20:30 1.11 231 2670 (2009) 122 (2021) 595 139 163 195 237 427 814 997 1190 1870
2022-09-22 19:30 1.15 246 2670 (2009) 122 (2021) 595 139 163 195 237 427 814 997 1190 1870
2022-09-22 18:30 1.17 253 2670 (2009) 122 (2021) 595 139 163 195 237 427 814 997 1190 1870
2022-09-22 17:30 1.21 269 2670 (2009) 122 (2021) 595 139 163 195 237 427 814 997 1190 1870
2022-09-22 16:30 1.23 277 2670 (2009) 122 (2021) 595 139 163 195 237 427 814 997 1190 1870
2022-09-22 15:30 1.29 301 2670 (2009) 122 (2021) 595 139 163 195 237 427 814 997 1190 1870
2022-09-22 14:30 1.34 321 2670 (2009) 122 (2021) 595 139 163 195 237 427 814 997 1190 1870
2022-09-22 13:30 1.39 342 2670 (2009) 122 (2021) 595 139 163 195 237 427 814 997 1190 1870
2022-09-22 12:30 1.45 368 2670 (2009) 122 (2021) 595 139 163 195 237 427 814 997 1190 1870
2022-09-22 11:30 1.52 400 2670 (2009) 122 (2021) 595 139 163 195 237 427 814 997 1190 1870
2022-09-22 10:30 1.58 427 2670 (2009) 122 (2021) 595 139 163 195 237 427 814 997 1190 1870
2022-09-22 09:30 1.66 466 2670 (2009) 122 (2021) 595 139 163 195 237 427 814 997 1190 1870
2022-09-22 08:30 1.74 509 2670 (2009) 122 (2021) 595 139 163 195 237 427 814 997 1190 1870
2022-09-22 07:30 1.83 558 2670 (2009) 122 (2021) 595 139 163 195 237 427 814 997 1190 1870
2022-09-22 06:30 1.92 610 2670 (2009) 122 (2021) 595 139 163 195 237 427 814 997 1190 1870
2022-09-22 05:30 2.02 670 2670 (2009) 122 (2021) 595 139 163 195 237 427 814 997 1190 1870
2022-09-22 04:30 2.13 738 2670 (2009) 122 (2021) 595 139 163 195 237 427 814 997 1190 1870
2022-09-22 03:30 2.25 816 2670 (2009) 122 (2021) 595 139 163 195 237 427 814 997 1190 1870
2022-09-22 02:30 2.38 903 2670 (2009) 122 (2021) 595 139 163 195 237 427 814 997 1190 1870
2022-09-22 01:30 2.53 1010 2670 (2009) 122 (2021) 595 139 163 195 237 427 814 997 1190 1870
2022-09-22 00:30 2.68 1120 2670 (2009) 122 (2021) 595 139 163 195 237 427 814 997 1190 1870
2022-09-21 23:30 2.84 1240 3600 (1974) 134 (1977) 673 147 174 205 256 465 786 949 1520 1960
2022-09-21 22:30 2.99 1360 3600 (1974) 134 (1977) 673 147 174 205 256 465 786 949 1520 1960
2022-09-21 21:30 3.08 1430 3600 (1974) 134 (1977) 673 147 174 205 256 465 786 949 1520 1960
2022-09-21 20:30 3.02 1390 3600 (1974) 134 (1977) 673 147 174 205 256 465 786 949 1520 1960
2022-09-21 19:30 2.56 1030 3600 (1974) 134 (1977) 673 147 174 205 256 465 786 949 1520 1960
2022-09-21 18:30 1.86 576 3600 (1974) 134 (1977) 673 147 174 205 256 465 786 949 1520 1960
2022-09-21 17:30 1.36 329 3600 (1974) 134 (1977) 673 147 174 205 256 465 786 949 1520 1960
2022-09-21 16:30 1.25 284 3600 (1974) 134 (1977) 673 147 174 205 256 465 786 949 1520 1960
2022-09-21 15:30 1.31 309 3600 (1974) 134 (1977) 673 147 174 205 256 465 786 949 1520 1960
2022-09-21 14:30 1.32 313 3600 (1974) 134 (1977) 673 147 174 205 256 465 786 949 1520 1960
2022-09-21 13:30 1.40 346 3600 (1974) 134 (1977) 673 147 174 205 256 465 786 949 1520 1960
2022-09-21 12:30 1.45 368 3600 (1974) 134 (1977) 673 147 174 205 256 465 786 949 1520 1960
2022-09-21 11:30 1.51 395 3600 (1974) 134 (1977) 673 147 174 205 256 465 786 949 1520 1960
2022-09-21 10:30 1.59 432 3600 (1974) 134 (1977) 673 147 174 205 256 465 786 949 1520 1960
2022-09-21 09:30 1.66 466 3600 (1974) 134 (1977) 673 147 174 205 256 465 786 949 1520 1960
2022-09-21 08:30 1.74 509 3600 (1974) 134 (1977) 673 147 174 205 256 465 786 949 1520 1960
2022-09-21 07:30 1.83 558 3600 (1974) 134 (1977) 673 147 174 205 256 465 786 949 1520 1960
2022-09-21 06:30 1.93 616 3600 (1974) 134 (1977) 673 147 174 205 256 465 786 949 1520 1960
2022-09-21 05:30 2.03 676 3600 (1974) 134 (1977) 673 147 174 205 256 465 786 949 1520 1960
2022-09-21 04:30 2.14 745 3600 (1974) 134 (1977) 673 147 174 205 256 465 786 949 1520 1960
2022-09-21 03:30 2.26 822 3600 (1974) 134 (1977) 673 147 174 205 256 465 786 949 1520 1960
2022-09-21 02:30 2.39 910 3600 (1974) 134 (1977) 673 147 174 205 256 465 786 949 1520 1960
2022-09-21 01:30 2.53 1010 3600 (1974) 134 (1977) 673 147 174 205 256 465 786 949 1520 1960
2022-09-21 00:30 2.68 1120 3600 (1974) 134 (1977) 673 147 174 205 256 465 786 949 1520 1960
2022-09-20 23:30 2.83 1230 4310 (1974) 138 (1989) 636 155 174 237 265 420 734 843 1410 1770
2022-09-20 22:30 3.00 1370 4310 (1974) 138 (1989) 636 155 174 237 265 420 734 843 1410 1770
2022-09-20 21:30 3.12 1470 4310 (1974) 138 (1989) 636 155 174 237 265 420 734 843 1410 1770
2022-09-20 20:30 3.05 1410 4310 (1974) 138 (1989) 636 155 174 237 265 420 734 843 1410 1770
2022-09-20 19:30 2.62 1070 4310 (1974) 138 (1989) 636 155 174 237 265 420 734 843 1410 1770
2022-09-20 18:30 1.92 610 4310 (1974) 138 (1989) 636 155 174 237 265 420 734 843 1410 1770
2022-09-20 17:30 1.42 355 4310 (1974) 138 (1989) 636 155 174 237 265 420 734 843 1410 1770
2022-09-20 16:30 1.31 309 4310 (1974) 138 (1989) 636 155 174 237 265 420 734 843 1410 1770
2022-09-20 15:30 1.33 317 4310 (1974) 138 (1989) 636 155 174 237 265 420 734 843 1410 1770
2022-09-20 14:30 1.41 351 4310 (1974) 138 (1989) 636 155 174 237 265 420 734 843 1410 1770
2022-09-20 13:30 1.47 377 4310 (1974) 138 (1989) 636 155 174 237 265 420 734 843 1410 1770
2022-09-20 12:30 1.54 409 4310 (1974) 138 (1989) 636 155 174 237 265 420 734 843 1410 1770
2022-09-20 11:30 1.61 441 4310 (1974) 138 (1989) 636 155 174 237 265 420 734 843 1410 1770
2022-09-20 10:30 1.68 476 4310 (1974) 138 (1989) 636 155 174 237 265 420 734 843 1410 1770
2022-09-20 09:30 1.77 525 4310 (1974) 138 (1989) 636 155 174 237 265 420 734 843 1410 1770
2022-09-20 08:30 1.86 576 4310 (1974) 138 (1989) 636 155 174 237 265 420 734 843 1410 1770
2022-09-20 07:30 1.96 634 4310 (1974) 138 (1989) 636 155 174 237 265 420 734 843 1410 1770
2022-09-20 06:30 2.06 694 4310 (1974) 138 (1989) 636 155 174 237 265 420 734 843 1410 1770
2022-09-20 05:30 2.18 770 4310 (1974) 138 (1989) 636 155 174 237 265 420 734 843 1410 1770
2022-09-20 04:30 2.30 849 4310 (1974) 138 (1989) 636 155 174 237 265 420 734 843 1410 1770
2022-09-20 03:30 2.44 945 4310 (1974) 138 (1989) 636 155 174 237 265 420 734 843 1410 1770
2022-09-20 02:30 2.59 1050 4310 (1974) 138 (1989) 636 155 174 237 265 420 734 843 1410 1770
2022-09-20 01:30 2.74 1160 4310 (1974) 138 (1989) 636 155 174 237 265 420 734 843 1410 1770
2022-09-20 00:30 2.91 1300 4310 (1974) 138 (1989) 636 155 174 237 265 420 734 843 1410 1770
2022-09-19 23:30 3.08 1430 3720 (1974) 141 (1989) 617 155 169 209 230 487 651 801 1210 2110
2022-09-19 22:30 3.20 1540 3720 (1974) 141 (1989) 617 155 169 209 230 487 651 801 1210 2110
2022-09-19 21:30 3.15 1490 3720 (1974) 141 (1989) 617 155 169 209 230 487 651 801 1210 2110
2022-09-19 20:30 2.70 1130 3720 (1974) 141 (1989) 617 155 169 209 230 487 651 801 1210 2110
2022-09-19 19:30 1.91 604 3720 (1974) 141 (1989) 617 155 169 209 230 487 651 801 1210 2110
2022-09-19 18:30 1.11 231 3720 (1974) 141 (1989) 617 155 169 209 230 487 651 801 1210 2110
2022-09-19 17:30 0.76 118 3720 (1974) 141 (1989) 617 155 169 209 230 487 651 801 1210 2110
2022-09-19 16:30 0.74 113 3720 (1974) 141 (1989) 617 155 169 209 230 487 651 801 1210 2110
2022-09-19 15:30 0.74 113 3720 (1974) 141 (1989) 617 155 169 209 230 487 651 801 1210 2110
2022-09-19 14:30 0.73 110 3720 (1974) 141 (1989) 617 155 169 209 230 487 651 801 1210 2110
2022-09-19 13:30 0.75 116 3720 (1974) 141 (1989) 617 155 169 209 230 487 651 801 1210 2110
2022-09-19 12:30 0.75 116 3720 (1974) 141 (1989) 617 155 169 209 230 487 651 801 1210 2110
2022-09-19 11:30 0.75 116 3720 (1974) 141 (1989) 617 155 169 209 230 487 651 801 1210 2110
2022-09-19 10:30 0.76 118 3720 (1974) 141 (1989) 617 155 169 209 230 487 651 801 1210 2110
2022-09-19 09:30 0.76 118 3720 (1974) 141 (1989) 617 155 169 209 230 487 651 801 1210 2110
2022-09-19 08:30 0.76 118 3720 (1974) 141 (1989) 617 155 169 209 230 487 651 801 1210 2110
2022-09-19 07:30 0.76 118 3720 (1974) 141 (1989) 617 155 169 209 230 487 651 801 1210 2110
2022-09-19 06:30 0.76 118 3720 (1974) 141 (1989) 617 155 169 209 230 487 651 801 1210 2110
2022-09-19 05:30 0.77 121 3720 (1974) 141 (1989) 617 155 169 209 230 487 651 801 1210 2110
2022-09-19 04:30 0.77 121 3720 (1974) 141 (1989) 617 155 169 209 230 487 651 801 1210 2110
2022-09-19 03:30 0.77 121 3720 (1974) 141 (1989) 617 155 169 209 230 487 651 801 1210 2110
2022-09-19 02:30 0.77 121 3720 (1974) 141 (1989) 617 155 169 209 230 487 651 801 1210 2110
2022-09-19 01:30 0.77 121 3720 (1974) 141 (1989) 617 155 169 209 230 487 651 801 1210 2110
2022-09-19 00:30 0.77 121 3720 (1974) 141 (1989) 617 155 169 209 230 487 651 801 1210 2110
2022-09-18 23:30 0.77 121 2970 (1974) 131 (1983) 633 152 185 258 298 401 718 819 1460 2360
2022-09-18 22:30 0.77 121 2970 (1974) 131 (1983) 633 152 185 258 298 401 718 819 1460 2360
2022-09-18 21:30 0.78 124 2970 (1974) 131 (1983) 633 152 185 258 298 401 718 819 1460 2360
2022-09-18 20:30 0.78 124 2970 (1974) 131 (1983) 633 152 185 258 298 401 718 819 1460 2360
2022-09-18 19:30 0.79 127 2970 (1974) 131 (1983) 633 152 185 258 298 401 718 819 1460 2360
2022-09-18 18:30 0.74 113 2970 (1974) 131 (1983) 633 152 185 258 298 401 718 819 1460 2360
2022-09-18 17:30 0.77 121 2970 (1974) 131 (1983) 633 152 185 258 298 401 718 819 1460 2360
2022-09-18 16:30 0.80 130 2970 (1974) 131 (1983) 633 152 185 258 298 401 718 819 1460 2360
2022-09-18 15:30 0.81 133 2970 (1974) 131 (1983) 633 152 185 258 298 401 718 819 1460 2360
2022-09-18 14:30 0.82 136 2970 (1974) 131 (1983) 633 152 185 258 298 401 718 819 1460 2360
2022-09-18 13:30 0.85 145 2970 (1974) 131 (1983) 633 152 185 258 298 401 718 819 1460 2360
2022-09-18 12:30 0.85 145 2970 (1974) 131 (1983) 633 152 185 258 298 401 718 819 1460 2360
2022-09-18 11:30 0.81 133 2970 (1974) 131 (1983) 633 152 185 258 298 401 718 819 1460 2360
2022-09-18 10:30 0.87 151 2970 (1974) 131 (1983) 633 152 185 258 298 401 718 819 1460 2360
2022-09-18 09:30 0.88 154 2970 (1974) 131 (1983) 633 152 185 258 298 401 718 819 1460 2360
2022-09-18 08:30 0.89 157 2970 (1974) 131 (1983) 633 152 185 258 298 401 718 819 1460 2360
2022-09-18 07:30 0.91 163 2970 (1974) 131 (1983) 633 152 185 258 298 401 718 819 1460 2360
2022-09-18 06:30 0.92 166 2970 (1974) 131 (1983) 633 152 185 258 298 401 718 819 1460 2360
2022-09-18 05:30 0.94 173 2970 (1974) 131 (1983) 633 152 185 258 298 401 718 819 1460 2360
2022-09-18 04:30 0.95 176 2970 (1974) 131 (1983) 633 152 185 258 298 401 718 819 1460 2360
2022-09-18 03:30 0.96 179 2970 (1974) 131 (1983) 633 152 185 258 298 401 718 819 1460 2360
2022-09-18 02:30 0.98 186 2970 (1974) 131 (1983) 633 152 185 258 298 401 718 819 1460 2360
2022-09-18 01:30 0.99 189 2970 (1974) 131 (1983) 633 152 185 258 298 401 718 819 1460 2360
2022-09-18 00:30 1.01 196 2970 (1974) 131 (1983) 633 152 185 258 298 401 718 819 1460 2360

A total of 190 rows are displayed for years 1970 through 2021.